createdAt,value
2018-12-23T00:00:52.719Z,3.80
2018-12-23T00:01:55.215Z,3.60
2018-12-23T00:02:57.790Z,3.70
2018-12-23T00:04:00.281Z,3.53
2018-12-23T00:05:11.190Z,4.17
2018-12-23T00:06:07.402Z,3.87
2018-12-23T00:07:09.863Z,3.90
2018-12-23T00:08:12.378Z,3.77
2018-12-23T00:09:14.964Z,3.73
2018-12-23T00:10:17.500Z,3.33
2018-12-23T00:11:20.039Z,4.20
2018-12-23T00:12:22.590Z,3.63
2018-12-23T00:13:25.131Z,3.60
2018-12-23T00:14:27.624Z,3.43
2018-12-23T00:15:30.167Z,2.90
2018-12-23T00:16:32.642Z,3.53
2018-12-23T00:17:35.100Z,3.40
2018-12-23T00:18:37.614Z,3.63
2018-12-23T00:19:40.101Z,3.40
2018-12-23T00:20:42.578Z,3.40
2018-12-23T00:21:45.062Z,3.77
2018-12-23T00:22:47.541Z,4.03
2018-12-23T00:23:50.044Z,3.63
2018-12-23T00:24:52.598Z,3.80
2018-12-23T00:25:55.056Z,3.47
2018-12-23T00:26:57.528Z,3.30
2018-12-23T00:28:00.057Z,4.47
2018-12-23T00:29:02.547Z,3.90
2018-12-23T00:30:07.171Z,3.10
2018-12-23T00:31:09.659Z,3.53
2018-12-23T00:32:12.138Z,3.73
2018-12-23T00:33:14.603Z,3.50
2018-12-23T00:34:17.098Z,3.90
2018-12-23T00:35:20.569Z,3.30
2018-12-23T00:36:23.348Z,3.63
2018-12-23T00:37:25.830Z,3.50
2018-12-23T00:38:28.325Z,3.40
2018-12-23T00:39:30.823Z,4.10
2018-12-23T00:40:33.369Z,3.57
2018-12-23T00:41:36.709Z,3.30
2018-12-23T00:42:39.358Z,3.53
2018-12-23T00:43:41.834Z,3.07
2018-12-23T00:44:44.348Z,3.30
2018-12-23T00:45:46.827Z,3.40
2018-12-23T00:46:49.303Z,3.30
2018-12-23T00:47:51.782Z,3.53
2018-12-23T00:48:54.263Z,3.53
2018-12-23T00:49:56.762Z,3.37
2018-12-23T00:50:59.252Z,3.40
2018-12-23T00:52:01.728Z,3.23
2018-12-23T00:53:04.290Z,3.97
2018-12-23T00:54:06.780Z,3.20
2018-12-23T00:55:09.278Z,3.40
2018-12-23T00:56:11.806Z,2.90
2018-12-23T00:57:14.268Z,3.50
2018-12-23T00:58:16.842Z,4.00
2018-12-23T00:59:19.434Z,3.33
2018-12-23T01:00:21.934Z,3.13
2018-12-23T01:01:24.445Z,3.00
2018-12-23T01:02:26.921Z,3.50
2018-12-23T01:03:29.409Z,3.30
2018-12-23T01:04:31.901Z,3.20
2018-12-23T01:05:34.388Z,3.50
2018-12-23T01:06:36.859Z,3.23
2018-12-23T01:07:39.381Z,3.30
2018-12-23T01:08:41.887Z,3.50
2018-12-23T01:09:44.379Z,3.00
2018-12-23T01:10:46.987Z,3.23
2018-12-23T01:11:49.448Z,3.00
2018-12-23T01:12:51.903Z,3.20
2018-12-23T01:13:54.368Z,4.27
2018-12-23T01:14:56.828Z,3.40
2018-12-23T01:15:59.375Z,3.20
2018-12-23T01:17:01.920Z,3.23
2018-12-23T01:18:04.380Z,3.27
2018-12-23T01:19:06.900Z,3.33
2018-12-23T01:20:09.562Z,3.13
2018-12-23T01:21:12.081Z,3.27
2018-12-23T01:22:14.554Z,3.27
2018-12-23T01:23:17.026Z,3.90
2018-12-23T01:24:19.503Z,3.40
2018-12-23T01:25:21.993Z,3.70
2018-12-23T01:26:24.502Z,2.80
2018-12-23T01:27:26.979Z,2.93
2018-12-23T01:28:29.475Z,2.80
2018-12-23T01:29:32.026Z,3.60
2018-12-23T01:30:34.494Z,3.03
2018-12-23T01:31:36.989Z,3.63
2018-12-23T01:32:39.452Z,3.30
2018-12-23T01:33:41.936Z,3.33
2018-12-23T01:34:44.418Z,2.90
2018-12-23T01:35:46.911Z,3.27
2018-12-23T01:36:49.429Z,3.70
2018-12-23T01:37:51.929Z,3.20
2018-12-23T01:38:54.403Z,3.40
2018-12-23T01:39:56.876Z,3.37
2018-12-23T01:40:59.358Z,3.00
2018-12-23T01:42:01.873Z,3.17
2018-12-23T01:43:04.346Z,3.50
2018-12-23T01:44:06.837Z,3.07
2018-12-23T01:45:09.331Z,3.07
2018-12-23T01:46:11.838Z,3.27
2018-12-23T01:47:14.339Z,2.83
2018-12-23T01:48:16.795Z,3.43
2018-12-23T01:49:19.274Z,3.00
2018-12-23T01:50:21.761Z,3.00
2018-12-23T01:51:24.258Z,2.80
2018-12-23T01:52:26.818Z,3.10
2018-12-23T01:53:29.315Z,2.77
2018-12-23T01:54:31.776Z,2.90
2018-12-23T01:55:34.268Z,2.90
2018-12-23T01:56:36.830Z,3.17
2018-12-23T01:57:39.401Z,3.33
2018-12-23T01:58:41.886Z,2.90
2018-12-23T01:59:44.402Z,3.20
2018-12-23T02:00:46.891Z,3.27
2018-12-23T02:01:49.374Z,2.53
2018-12-23T02:02:51.886Z,3.10
2018-12-23T02:03:54.371Z,2.60
2018-12-23T02:04:56.850Z,3.43
2018-12-23T02:05:59.333Z,3.00
2018-12-23T02:07:01.890Z,2.80
2018-12-23T02:08:04.443Z,3.23
2018-12-23T02:09:06.982Z,3.00
2018-12-23T02:10:09.540Z,2.77
2018-12-23T02:11:12.042Z,2.83
2018-12-23T02:12:14.537Z,3.10
2018-12-23T02:13:17.030Z,3.10
2018-12-23T02:14:19.589Z,3.50
2018-12-23T02:15:22.052Z,2.20
2018-12-23T02:16:24.969Z,3.23
2018-12-23T02:17:27.432Z,2.80
2018-12-23T02:18:30.017Z,3.03
2018-12-23T02:19:32.499Z,3.13
2018-12-23T02:20:34.998Z,3.07
2018-12-23T02:21:37.665Z,3.00
2018-12-23T02:22:40.142Z,3.10
2018-12-23T02:23:42.637Z,2.90
2018-12-23T02:24:45.147Z,2.53
2018-12-23T02:25:47.637Z,2.90
2018-12-23T02:26:50.189Z,3.00
2018-12-23T02:27:52.703Z,3.03
2018-12-23T02:28:55.182Z,2.80
2018-12-23T02:29:57.640Z,2.70
2018-12-23T02:31:00.118Z,3.17
2018-12-23T02:32:02.606Z,2.57
2018-12-23T02:33:05.078Z,2.97
2018-12-23T02:34:07.575Z,3.07
2018-12-23T02:35:10.070Z,2.60
2018-12-23T02:36:12.567Z,2.60
2018-12-23T02:37:15.044Z,2.30
2018-12-23T02:38:17.531Z,2.60
2018-12-23T02:39:20.037Z,2.50
2018-12-23T02:40:22.610Z,2.77
2018-12-23T02:41:31.458Z,3.00
2018-12-23T02:42:29.567Z,3.07
2018-12-23T02:43:32.050Z,3.00
2018-12-23T02:44:34.520Z,3.13
2018-12-23T02:45:36.996Z,2.80
2018-12-23T02:46:39.464Z,2.73
2018-12-23T02:47:41.936Z,2.73
2018-12-23T02:48:44.400Z,2.73
2018-12-23T02:49:46.932Z,2.90
2018-12-23T02:50:49.390Z,2.80
2018-12-23T02:51:51.884Z,2.47
2018-12-23T02:52:54.401Z,2.67
2018-12-23T02:53:56.889Z,2.43
2018-12-23T02:54:59.373Z,3.10
2018-12-23T02:56:01.857Z,2.50
2018-12-23T02:57:04.340Z,2.80
2018-12-23T02:58:06.822Z,2.70
2018-12-23T02:59:09.296Z,2.73
2018-12-23T03:00:11.777Z,2.47
2018-12-23T03:01:14.232Z,2.37
2018-12-23T03:02:16.706Z,2.90
2018-12-23T03:03:19.396Z,2.53
2018-12-23T03:04:21.853Z,2.73
2018-12-23T03:05:24.354Z,2.10
2018-12-23T03:06:26.830Z,2.40
2018-12-23T03:07:29.303Z,2.53
2018-12-23T03:08:31.775Z,2.47
2018-12-23T03:09:34.252Z,2.70
2018-12-23T03:10:36.752Z,2.47
2018-12-23T03:11:39.311Z,2.40
2018-12-23T03:12:41.797Z,2.30
2018-12-23T03:13:44.252Z,2.50
2018-12-23T03:14:46.726Z,2.60
2018-12-23T03:15:49.299Z,2.53
2018-12-23T03:16:51.986Z,2.63
2018-12-23T03:17:54.618Z,2.20
2018-12-23T03:18:57.098Z,2.50
2018-12-23T03:19:59.571Z,2.60
2018-12-23T03:21:02.129Z,2.67
2018-12-23T03:22:04.680Z,2.60
2018-12-23T03:23:07.154Z,3.67
2018-12-23T03:24:09.633Z,2.83
2018-12-23T03:25:12.102Z,2.30
2018-12-23T03:26:14.625Z,2.60
2018-12-23T03:27:17.117Z,2.70
2018-12-23T03:28:19.580Z,2.13
2018-12-23T03:29:22.054Z,2.50
2018-12-23T03:30:24.529Z,2.30
2018-12-23T03:31:27.011Z,2.60
2018-12-23T03:32:29.505Z,2.80
2018-12-23T03:33:32.005Z,2.67
2018-12-23T03:34:34.506Z,2.40
2018-12-23T03:35:36.978Z,2.40
2018-12-23T03:36:39.511Z,2.50
2018-12-23T03:37:41.977Z,2.10
2018-12-23T03:38:44.456Z,2.47
2018-12-23T03:39:46.919Z,2.17
2018-12-23T03:40:49.391Z,2.17
2018-12-23T03:41:51.949Z,2.40
2018-12-23T03:42:54.554Z,2.30
2018-12-23T03:43:57.030Z,2.53
2018-12-23T03:44:59.510Z,2.70
2018-12-23T03:46:01.983Z,2.40
2018-12-23T03:47:04.513Z,2.30
2018-12-23T03:48:07.009Z,2.30
2018-12-23T03:49:09.504Z,2.50
2018-12-23T03:50:11.995Z,2.13
2018-12-23T03:51:14.484Z,2.20
2018-12-23T03:52:17.071Z,2.50
2018-12-23T03:53:19.552Z,2.30
2018-12-23T03:54:22.043Z,2.67
2018-12-23T03:55:24.558Z,2.10
2018-12-23T03:56:27.034Z,2.57
2018-12-23T03:57:29.534Z,2.17
2018-12-23T03:58:32.007Z,2.20
2018-12-23T03:59:34.483Z,2.10
2018-12-23T04:00:36.955Z,2.37
2018-12-23T04:01:39.438Z,2.00
2018-12-23T04:02:41.916Z,2.53
2018-12-23T04:03:44.462Z,2.20
2018-12-23T04:04:46.964Z,2.43
2018-12-23T04:05:49.528Z,2.07
2018-12-23T04:06:52.026Z,2.03
2018-12-23T04:07:54.517Z,2.50
2018-12-23T04:08:56.983Z,2.53
2018-12-23T04:09:59.453Z,2.23
2018-12-23T04:11:01.923Z,2.27
2018-12-23T04:12:04.398Z,2.20
2018-12-23T04:13:06.891Z,2.10
2018-12-23T04:14:09.387Z,2.10
2018-12-23T04:15:11.953Z,2.50
2018-12-23T04:16:14.431Z,2.47
2018-12-23T04:17:16.910Z,2.07
2018-12-23T04:18:19.390Z,2.33
2018-12-23T04:19:21.865Z,2.33
2018-12-23T04:20:24.345Z,2.30
2018-12-23T04:21:26.837Z,2.53
2018-12-23T04:22:29.316Z,2.23
2018-12-23T04:23:31.797Z,2.40
2018-12-23T04:24:34.289Z,2.30
2018-12-23T04:25:36.767Z,2.70
2018-12-23T04:26:39.262Z,2.17
2018-12-23T04:27:41.757Z,2.00
2018-12-23T04:28:44.257Z,2.43
2018-12-23T04:29:46.906Z,2.27
2018-12-23T04:30:49.385Z,2.37
2018-12-23T04:31:51.853Z,2.17
2018-12-23T04:32:54.327Z,2.20
2018-12-23T04:33:56.942Z,1.57
2018-12-23T04:34:59.404Z,2.03
2018-12-23T04:36:01.874Z,2.13
2018-12-23T04:37:04.371Z,1.80
2018-12-23T04:38:06.846Z,2.73
2018-12-23T04:39:09.345Z,2.10
2018-12-23T04:40:11.822Z,2.10
2018-12-23T04:41:14.317Z,2.23
2018-12-23T04:42:16.780Z,1.73
2018-12-23T04:43:19.258Z,2.30
2018-12-23T04:44:21.754Z,2.03
2018-12-23T04:45:24.219Z,2.30
2018-12-23T04:46:26.781Z,2.37
2018-12-23T04:47:29.358Z,2.73
2018-12-23T04:48:31.811Z,2.03
2018-12-23T04:49:34.329Z,1.80
2018-12-23T04:50:36.826Z,1.80
2018-12-23T04:51:39.322Z,2.03
2018-12-23T04:52:41.798Z,3.10
2018-12-23T04:53:44.289Z,2.40
2018-12-23T04:54:46.880Z,2.50
2018-12-23T04:55:49.354Z,2.30
2018-12-23T04:56:51.829Z,2.30
2018-12-23T04:57:54.310Z,2.00
2018-12-23T04:58:56.798Z,2.17
2018-12-23T04:59:59.276Z,2.00
2018-12-23T05:01:01.750Z,2.00
2018-12-23T05:02:04.325Z,2.10
2018-12-23T05:03:06.851Z,1.90
2018-12-23T05:04:09.332Z,2.00
2018-12-23T05:05:11.849Z,2.07
2018-12-23T05:06:14.314Z,2.20
2018-12-23T05:07:16.792Z,1.90
2018-12-23T05:08:19.270Z,1.70
2018-12-23T05:09:21.728Z,1.90
2018-12-23T05:10:24.208Z,2.30
2018-12-23T05:11:26.699Z,2.00
2018-12-23T05:12:29.194Z,2.23
2018-12-23T05:13:31.688Z,2.07
2018-12-23T05:14:34.186Z,2.30
2018-12-23T05:15:36.677Z,2.43
2018-12-23T05:16:39.172Z,2.13
2018-12-23T05:17:41.665Z,2.00
2018-12-23T05:18:44.139Z,1.93
2018-12-23T05:19:46.632Z,1.73
2018-12-23T05:20:49.109Z,1.77
2018-12-23T05:21:51.602Z,1.90
2018-12-23T05:22:54.094Z,1.97
2018-12-23T05:23:56.572Z,1.67
2018-12-23T05:24:59.114Z,1.87
2018-12-23T05:26:01.622Z,1.60
2018-12-23T05:27:04.158Z,2.20
2018-12-23T05:28:06.624Z,2.20
2018-12-23T05:29:09.083Z,2.00
2018-12-23T05:30:11.573Z,1.63
2018-12-23T05:31:14.084Z,1.83
2018-12-23T05:32:16.541Z,2.20
2018-12-23T05:33:19.015Z,1.80
2018-12-23T05:34:21.495Z,1.73
2018-12-23T05:35:23.972Z,2.03
2018-12-23T05:36:26.475Z,1.70
2018-12-23T05:37:28.950Z,2.00
2018-12-23T05:38:31.437Z,1.80
2018-12-23T05:39:33.919Z,2.00
2018-12-23T05:40:36.390Z,1.80
2018-12-23T05:41:38.973Z,1.97
2018-12-23T05:42:41.447Z,2.30
2018-12-23T05:43:43.910Z,1.83
2018-12-23T05:44:46.394Z,1.80
2018-12-23T05:45:48.870Z,2.17
2018-12-23T05:46:51.340Z,1.90
2018-12-23T05:47:53.800Z,1.60
2018-12-23T05:48:56.275Z,1.93
2018-12-23T05:49:58.764Z,1.90
2018-12-23T05:51:01.240Z,2.27
2018-12-23T05:52:03.802Z,1.90
2018-12-23T05:53:06.256Z,1.97
2018-12-23T05:54:08.712Z,1.80
2018-12-23T05:55:11.181Z,1.70
2018-12-23T05:56:13.650Z,2.07
2018-12-23T05:57:16.161Z,2.10
2018-12-23T05:58:18.648Z,1.70
2018-12-23T05:59:21.141Z,2.07
2018-12-23T06:00:23.622Z,1.90
2018-12-23T06:01:26.098Z,2.20
2018-12-23T06:02:28.594Z,2.63
2018-12-23T06:03:31.052Z,2.57
2018-12-23T06:04:33.541Z,2.47
2018-12-23T06:05:36.140Z,1.97
2018-12-23T06:06:38.729Z,2.53
2018-12-23T06:07:41.207Z,1.90
2018-12-23T06:08:43.683Z,3.00
2018-12-23T06:09:46.162Z,2.50
2018-12-23T06:10:48.638Z,2.43
2018-12-23T06:11:51.109Z,2.70
2018-12-23T06:12:53.594Z,2.57
2018-12-23T06:13:56.090Z,3.07
2018-12-23T06:14:58.593Z,2.63
2018-12-23T06:16:01.066Z,3.00
2018-12-23T06:17:03.623Z,3.10
2018-12-23T06:18:06.237Z,4.80
2018-12-23T06:19:08.718Z,7.60
2018-12-23T06:20:11.202Z,12.60
2018-12-23T06:21:13.660Z,7.80
2018-12-23T06:22:16.137Z,6.20
2018-12-23T06:23:18.646Z,7.00
2018-12-23T06:24:21.114Z,6.63
2018-12-23T06:25:23.591Z,6.07
2018-12-23T06:26:26.067Z,5.70
2018-12-23T06:27:28.528Z,5.17
2018-12-23T06:28:31.042Z,5.07
2018-12-23T06:29:33.526Z,6.50
2018-12-23T06:30:35.986Z,6.30
2018-12-23T06:31:38.449Z,6.57
2018-12-23T06:32:40.912Z,6.87
2018-12-23T06:33:43.406Z,5.83
2018-12-23T06:34:45.868Z,6.00
2018-12-23T06:35:48.328Z,5.40
2018-12-23T06:36:50.810Z,6.00
2018-12-23T06:37:53.267Z,6.50
2018-12-23T06:38:55.767Z,5.60
2018-12-23T06:39:58.256Z,5.90
2018-12-23T06:41:00.748Z,6.10
2018-12-23T06:42:03.212Z,5.60
2018-12-23T06:43:05.690Z,5.20
2018-12-23T06:44:08.204Z,6.40
2018-12-23T06:45:10.697Z,5.47
2018-12-23T06:46:13.160Z,5.20
2018-12-23T06:47:15.638Z,5.20
2018-12-23T06:48:18.117Z,5.63
2018-12-23T06:49:20.622Z,5.50
2018-12-23T06:50:24.115Z,5.00
2018-12-23T06:51:26.576Z,5.13
2018-12-23T06:52:29.079Z,4.80
2018-12-23T06:53:31.626Z,5.50
2018-12-23T06:54:34.108Z,5.57
2018-12-23T06:55:36.587Z,5.00
2018-12-23T06:56:39.062Z,5.97
2018-12-23T06:57:41.561Z,7.47
2018-12-23T06:58:44.042Z,7.63
2018-12-23T06:59:46.534Z,7.90
2018-12-23T07:00:49.024Z,7.90
2018-12-23T07:01:51.502Z,8.37
2018-12-23T07:02:53.996Z,8.77
2018-12-23T07:03:56.497Z,7.53
2018-12-23T07:04:58.991Z,6.87
2018-12-23T07:06:01.481Z,7.77
2018-12-23T07:07:03.973Z,6.50
2018-12-23T07:08:06.481Z,6.80
2018-12-23T07:09:08.977Z,7.40
2018-12-23T07:10:11.493Z,7.47
2018-12-23T07:11:14.050Z,7.17
2018-12-23T07:12:16.533Z,6.37
2018-12-23T07:13:19.022Z,7.20
2018-12-23T07:14:21.505Z,6.70
2018-12-23T07:15:24.021Z,7.57
2018-12-23T07:16:26.484Z,7.27
2018-12-23T07:17:28.967Z,6.50
2018-12-23T07:18:31.431Z,6.40
2018-12-23T07:19:33.892Z,7.53
2018-12-23T07:20:36.386Z,5.67
2018-12-23T07:21:38.892Z,6.53
2018-12-23T07:22:41.374Z,6.70
2018-12-23T07:23:43.846Z,6.53
2018-12-23T07:24:46.340Z,6.40
2018-12-23T07:25:48.842Z,6.93
2018-12-23T07:26:51.323Z,6.23
2018-12-23T07:27:53.787Z,6.30
2018-12-23T07:28:56.262Z,6.00
2018-12-23T07:29:58.753Z,6.77
2018-12-23T07:31:01.256Z,7.10
2018-12-23T07:32:03.716Z,5.37
2018-12-23T07:33:06.437Z,6.93
2018-12-23T07:34:08.904Z,6.40
2018-12-23T07:35:11.379Z,6.10
2018-12-23T07:36:13.923Z,6.07
2018-12-23T07:37:16.478Z,6.07
2018-12-23T07:38:18.959Z,6.10
2018-12-23T07:39:21.444Z,5.77
2018-12-23T07:40:23.929Z,5.77
2018-12-23T07:41:26.430Z,5.80
2018-12-23T07:42:28.906Z,5.77
2018-12-23T07:43:31.383Z,7.00
2018-12-23T07:44:33.861Z,4.60
2018-12-23T07:45:36.377Z,5.73
2018-12-23T07:46:38.872Z,5.23
2018-12-23T07:47:41.340Z,6.50
2018-12-23T07:48:43.822Z,5.50
2018-12-23T07:49:46.298Z,5.47
2018-12-23T07:50:48.795Z,5.73
2018-12-23T07:51:51.274Z,6.80
2018-12-23T07:52:53.751Z,5.53
2018-12-23T07:53:56.245Z,6.23
2018-12-23T07:54:58.727Z,5.27
2018-12-23T07:56:01.223Z,5.77
2018-12-23T07:57:03.784Z,5.47
2018-12-23T07:58:06.266Z,5.00
2018-12-23T07:59:08.746Z,5.30
2018-12-23T08:00:11.208Z,5.13
2018-12-23T08:01:13.697Z,5.50
2018-12-23T08:02:16.185Z,5.40
2018-12-23T08:03:18.644Z,5.30
2018-12-23T08:04:21.103Z,4.30
2018-12-23T08:05:23.578Z,5.43
2018-12-23T08:06:26.060Z,4.60
2018-12-23T08:07:35.951Z,5.40
2018-12-23T08:08:33.015Z,5.10
2018-12-23T08:09:35.480Z,5.30
2018-12-23T08:10:37.950Z,5.00
2018-12-23T08:11:40.472Z,5.20
2018-12-23T08:12:42.936Z,4.50
2018-12-23T08:13:45.506Z,5.70
2018-12-23T08:14:47.964Z,5.20
2018-12-23T08:15:50.423Z,5.00
2018-12-23T08:16:53.195Z,5.27
2018-12-23T08:17:55.692Z,5.57
2018-12-23T08:18:58.265Z,4.70
2018-12-23T08:20:00.823Z,4.40
2018-12-23T08:21:03.522Z,5.57
2018-12-23T08:22:06.023Z,4.40
2018-12-23T08:23:08.487Z,4.80
2018-12-23T08:24:10.966Z,4.53
2018-12-23T08:25:13.451Z,4.80
2018-12-23T08:26:15.931Z,5.20
2018-12-23T08:27:18.431Z,4.73
2018-12-23T08:28:20.907Z,4.57
2018-12-23T08:29:23.399Z,4.83
2018-12-23T08:30:25.864Z,4.63
2018-12-23T08:31:28.339Z,4.93
2018-12-23T08:32:30.841Z,5.70
2018-12-23T08:33:33.484Z,4.60
2018-12-23T08:34:35.985Z,4.90
2018-12-23T08:35:38.466Z,5.03
2018-12-23T08:36:40.946Z,4.93
2018-12-23T08:37:44.715Z,4.30
2018-12-23T08:38:47.534Z,4.63
2018-12-23T08:39:50.016Z,4.73
2018-12-23T08:40:52.475Z,4.57
2018-12-23T08:41:55.013Z,4.20
2018-12-23T08:42:57.514Z,4.70
2018-12-23T08:44:00.010Z,3.93
2018-12-23T08:45:02.509Z,4.30
2018-12-23T08:46:04.991Z,4.23
2018-12-23T08:47:07.478Z,4.47
2018-12-23T08:48:10.034Z,4.17
2018-12-23T08:49:12.529Z,4.40
2018-12-23T08:50:15.015Z,3.70
2018-12-23T08:51:17.587Z,4.67
2018-12-23T08:52:20.072Z,4.20
2018-12-23T08:53:22.563Z,3.80
2018-12-23T08:54:25.034Z,4.20
2018-12-23T08:55:27.513Z,4.17
2018-12-23T08:56:29.994Z,4.33
2018-12-23T08:57:32.474Z,3.80
2018-12-23T08:58:34.962Z,4.47
2018-12-23T08:59:37.442Z,4.30
2018-12-23T09:00:39.913Z,4.47
2018-12-23T09:01:42.410Z,4.03
2018-12-23T09:02:44.976Z,3.57
2018-12-23T09:03:47.602Z,4.10
2018-12-23T09:04:50.108Z,3.47
2018-12-23T09:05:52.710Z,4.07
2018-12-23T09:06:55.222Z,3.77
2018-12-23T09:07:57.727Z,4.00
2018-12-23T09:09:00.230Z,3.20
2018-12-23T09:10:02.777Z,4.10
2018-12-23T09:11:05.249Z,4.20
2018-12-23T09:12:07.779Z,3.80
2018-12-23T09:13:10.258Z,4.13
2018-12-23T09:14:12.750Z,4.23
2018-12-23T09:15:15.212Z,3.90
2018-12-23T09:16:18.063Z,3.47
2018-12-23T09:17:20.660Z,4.20
2018-12-23T09:18:23.127Z,3.50
2018-12-23T09:19:25.633Z,3.57
2018-12-23T09:20:28.132Z,3.83
2018-12-23T09:21:30.620Z,3.67
2018-12-23T09:22:33.095Z,3.80
2018-12-23T09:23:35.574Z,4.00
2018-12-23T09:24:38.054Z,4.03
2018-12-23T09:25:40.514Z,3.73
2018-12-23T09:26:43.104Z,3.60
2018-12-23T09:27:45.597Z,3.40
2018-12-23T09:28:48.092Z,3.83
2018-12-23T09:29:50.606Z,3.67
2018-12-23T09:30:53.069Z,3.80
2018-12-23T09:31:55.595Z,4.10
2018-12-23T09:32:58.085Z,3.90
2018-12-23T09:34:00.577Z,3.60
2018-12-23T09:35:03.089Z,4.00
2018-12-23T09:36:05.551Z,4.30
2018-12-23T09:37:08.022Z,3.30
2018-12-23T09:38:10.513Z,2.83
2018-12-23T09:39:13.002Z,3.50
2018-12-23T09:40:15.574Z,3.90
2018-12-23T09:41:18.058Z,3.43
2018-12-23T09:42:20.523Z,3.67
2018-12-23T09:43:22.998Z,3.40
2018-12-23T09:44:25.468Z,3.43
2018-12-23T09:45:28.011Z,3.67
2018-12-23T09:46:30.472Z,3.13
2018-12-23T09:47:32.973Z,3.20
2018-12-23T09:48:35.465Z,3.20
2018-12-23T09:49:37.961Z,3.30
2018-12-23T09:50:40.473Z,3.13
2018-12-23T09:51:42.936Z,3.47
2018-12-23T09:52:45.422Z,3.00
2018-12-23T09:53:47.883Z,3.70
2018-12-23T09:54:50.363Z,3.33
2018-12-23T09:55:52.873Z,3.60
2018-12-23T09:56:55.373Z,3.47
2018-12-23T09:57:57.852Z,3.30
2018-12-23T09:59:00.327Z,3.33
2018-12-23T10:00:02.961Z,3.23
2018-12-23T10:01:05.516Z,3.27
2018-12-23T10:02:07.973Z,3.50
2018-12-23T10:03:10.488Z,2.97
2018-12-23T10:04:13.071Z,3.00
2018-12-23T10:05:15.570Z,3.10
2018-12-23T10:06:18.064Z,3.33
2018-12-23T10:07:20.545Z,3.30
2018-12-23T10:08:23.053Z,3.30
2018-12-23T10:09:25.549Z,3.00
2018-12-23T10:10:28.643Z,2.87
2018-12-23T10:11:31.382Z,2.73
2018-12-23T10:12:34.633Z,3.53
2018-12-23T10:13:37.100Z,3.10
2018-12-23T10:14:39.564Z,3.47
2018-12-23T10:15:42.054Z,3.73
2018-12-23T10:16:44.556Z,3.43
2018-12-23T10:17:47.042Z,3.00
2018-12-23T10:18:49.517Z,3.47
2018-12-23T10:19:51.998Z,3.13
2018-12-23T10:20:54.465Z,3.37
2018-12-23T10:21:56.977Z,3.37
2018-12-23T10:22:59.461Z,3.60
2018-12-23T10:24:01.949Z,3.03
2018-12-23T10:25:04.571Z,2.80
2018-12-23T10:26:07.070Z,3.27
2018-12-23T10:27:09.563Z,2.80
2018-12-23T10:28:12.099Z,3.40
2018-12-23T10:29:14.573Z,2.77
2018-12-23T10:30:17.050Z,2.97
2018-12-23T10:31:19.527Z,2.93
2018-12-23T10:32:22.056Z,2.47
2018-12-23T10:33:24.561Z,3.33
2018-12-23T10:34:27.034Z,3.43
2018-12-23T10:35:29.529Z,2.70
2018-12-23T10:36:32.012Z,3.53
2018-12-23T10:37:34.502Z,3.27
2018-12-23T10:38:36.993Z,2.70
2018-12-23T10:39:39.452Z,2.90
2018-12-23T10:40:41.931Z,3.20
2018-12-23T10:41:44.396Z,3.23
2018-12-23T10:42:46.875Z,3.13
2018-12-23T10:43:49.365Z,2.93
2018-12-23T10:44:51.901Z,2.90
2018-12-23T10:45:54.458Z,2.90
2018-12-23T10:46:56.934Z,3.17
2018-12-23T10:47:59.430Z,3.40
2018-12-23T10:49:01.927Z,2.97
2018-12-23T10:50:04.828Z,2.63
2018-12-23T10:51:07.287Z,3.27
2018-12-23T10:52:09.781Z,3.00
2018-12-23T10:53:12.272Z,2.83
2018-12-23T10:54:14.751Z,3.10
2018-12-23T10:55:17.224Z,3.03
2018-12-23T10:56:19.720Z,2.70
2018-12-23T10:57:22.180Z,2.70
2018-12-23T10:58:24.746Z,2.70
2018-12-23T10:59:27.292Z,3.30
2018-12-23T11:00:29.794Z,2.93
2018-12-23T11:01:32.266Z,2.90
2018-12-23T11:02:34.742Z,2.83
2018-12-23T11:03:37.234Z,3.70
2018-12-23T11:04:39.718Z,2.80
2018-12-23T11:05:42.198Z,3.07
2018-12-23T11:06:44.670Z,2.90
2018-12-23T11:07:47.128Z,3.10
2018-12-23T11:08:49.609Z,3.00
2018-12-23T11:09:52.069Z,2.77
2018-12-23T11:10:54.532Z,2.50
2018-12-23T11:11:56.998Z,2.47
2018-12-23T11:12:59.470Z,2.60
2018-12-23T11:14:02.038Z,3.20
2018-12-23T11:15:05.640Z,2.47
2018-12-23T11:16:08.122Z,2.67
2018-12-23T11:17:10.617Z,2.63
2018-12-23T11:18:13.109Z,2.57
2018-12-23T11:19:15.653Z,2.60
2018-12-23T11:20:18.107Z,2.23
2018-12-23T11:21:20.590Z,2.90
2018-12-23T11:22:23.069Z,2.50
2018-12-23T11:23:25.536Z,2.57
2018-12-23T11:24:28.029Z,2.73
2018-12-23T11:25:30.492Z,3.00
2018-12-23T11:26:32.951Z,2.40
2018-12-23T11:27:35.408Z,2.40
2018-12-23T11:28:37.882Z,2.60
2018-12-23T11:29:40.375Z,2.53
2018-12-23T11:30:42.850Z,2.30
2018-12-23T11:31:45.327Z,2.60
2018-12-23T11:32:47.803Z,2.30
2018-12-23T11:33:50.265Z,2.73
2018-12-23T11:34:52.740Z,2.60
2018-12-23T11:35:55.258Z,2.80
2018-12-23T11:36:57.735Z,2.50
2018-12-23T11:38:00.233Z,2.60
2018-12-23T11:39:03.082Z,2.67
2018-12-23T11:40:07.704Z,2.80
2018-12-23T11:41:10.165Z,2.80
2018-12-23T11:42:12.619Z,2.23
2018-12-23T11:43:15.094Z,2.03
2018-12-23T11:44:17.567Z,2.30
2018-12-23T11:45:20.067Z,2.30
2018-12-23T11:46:22.538Z,2.43
2018-12-23T11:47:25.000Z,2.30
2018-12-23T11:48:27.488Z,2.30
2018-12-23T11:49:29.952Z,3.43
2018-12-23T11:50:32.428Z,2.30
2018-12-23T11:51:34.884Z,2.27
2018-12-23T11:52:37.336Z,2.30
2018-12-23T11:53:39.792Z,2.70
2018-12-23T11:54:42.262Z,2.40
2018-12-23T11:55:44.776Z,2.47
2018-12-23T11:56:47.236Z,2.50
2018-12-23T11:57:49.725Z,2.40
2018-12-23T11:58:52.197Z,2.43
2018-12-23T11:59:54.679Z,2.43
2018-12-23T12:00:57.161Z,2.53
2018-12-23T12:01:59.630Z,2.70
2018-12-23T12:03:02.121Z,2.20
2018-12-23T12:04:04.578Z,2.20
2018-12-23T12:05:07.033Z,2.37
2018-12-23T12:06:09.545Z,3.10
2018-12-23T12:07:12.023Z,1.80
2018-12-23T12:08:14.513Z,2.57
2018-12-23T12:09:16.988Z,2.63
2018-12-23T12:10:19.455Z,2.30
2018-12-23T12:11:21.950Z,2.30
2018-12-23T12:12:24.407Z,2.00
2018-12-23T12:13:27.058Z,2.20
2018-12-23T12:14:29.535Z,2.23
2018-12-23T12:15:32.027Z,2.53
2018-12-23T12:16:34.500Z,2.43
2018-12-23T12:17:36.975Z,2.80
2018-12-23T12:18:39.447Z,2.10
2018-12-23T12:19:41.927Z,2.33
2018-12-23T12:20:44.404Z,2.70
2018-12-23T12:21:46.913Z,2.20
2018-12-23T12:22:49.392Z,2.50
2018-12-23T12:23:51.874Z,2.53
2018-12-23T12:24:54.354Z,2.50
2018-12-23T12:25:56.831Z,2.20
2018-12-23T12:26:59.322Z,2.10
2018-12-23T12:28:01.813Z,2.43
2018-12-23T12:29:04.284Z,2.13
2018-12-23T12:30:06.830Z,2.20
2018-12-23T12:31:09.305Z,2.20
2018-12-23T12:32:11.816Z,2.37
2018-12-23T12:33:14.291Z,2.10
2018-12-23T12:34:16.767Z,2.20
2018-12-23T12:35:19.261Z,2.10
2018-12-23T12:36:21.810Z,1.87
2018-12-23T12:37:24.310Z,2.57
2018-12-23T12:38:26.769Z,2.27
2018-12-23T12:39:29.224Z,2.10
2018-12-23T12:40:31.712Z,2.40
2018-12-23T12:41:34.195Z,1.90
2018-12-23T12:42:36.671Z,2.17
2018-12-23T12:43:39.150Z,2.27
2018-12-23T12:44:41.612Z,1.90
2018-12-23T12:45:44.108Z,2.43
2018-12-23T12:46:46.589Z,2.47
2018-12-23T12:47:49.064Z,2.20
2018-12-23T12:48:51.542Z,2.20
2018-12-23T12:49:54.013Z,2.20
2018-12-23T12:50:56.514Z,2.37
2018-12-23T12:51:58.995Z,2.13
2018-12-23T12:53:01.477Z,2.00
2018-12-23T12:54:03.931Z,2.20
2018-12-23T12:55:06.389Z,2.33
2018-12-23T12:56:08.866Z,2.10
2018-12-23T12:57:11.357Z,1.83
2018-12-23T12:58:13.872Z,1.90
2018-12-23T12:59:16.364Z,2.20
2018-12-23T13:00:18.858Z,2.10
2018-12-23T13:01:21.333Z,2.07
2018-12-23T13:02:23.822Z,2.37
2018-12-23T13:03:26.320Z,2.00
2018-12-23T13:04:28.805Z,2.10
2018-12-23T13:05:31.282Z,2.03
2018-12-23T13:06:33.740Z,2.43
2018-12-23T13:07:36.211Z,1.97
2018-12-23T13:08:38.711Z,2.57
2018-12-23T13:09:41.197Z,1.80
2018-12-23T13:10:43.660Z,2.10
2018-12-23T13:11:46.130Z,2.07
2018-12-23T13:12:48.606Z,1.80
2018-12-23T13:13:51.083Z,2.10
2018-12-23T13:14:53.544Z,2.20
2018-12-23T13:15:56.022Z,1.53
2018-12-23T13:16:58.480Z,1.67
2018-12-23T13:18:00.936Z,1.90
2018-12-23T13:19:03.492Z,2.17
2018-12-23T13:20:06.784Z,1.87
2018-12-23T13:21:09.263Z,2.00
2018-12-23T13:22:11.743Z,2.00
2018-12-23T13:23:14.218Z,2.47
2018-12-23T13:24:16.729Z,2.00
2018-12-23T13:25:19.202Z,2.17
2018-12-23T13:26:21.656Z,1.93
2018-12-23T13:27:24.122Z,2.10
2018-12-23T13:28:26.635Z,2.13
2018-12-23T13:29:29.219Z,2.17
2018-12-23T13:30:31.683Z,1.87
2018-12-23T13:31:34.234Z,2.23
2018-12-23T13:32:36.692Z,1.70
2018-12-23T13:33:39.183Z,2.60
2018-12-23T13:34:41.682Z,2.00
2018-12-23T13:35:44.173Z,2.00
2018-12-23T13:36:46.665Z,1.87
2018-12-23T13:37:49.124Z,1.80
2018-12-23T13:38:51.580Z,1.80
2018-12-23T13:39:54.410Z,1.80
2018-12-23T13:41:02.309Z,2.07
2018-12-23T13:42:10.290Z,2.27
2018-12-23T13:43:22.351Z,2.10
2018-12-23T13:44:55.051Z,1.97
2018-12-23T13:48:11.922Z,1.90
2018-12-23T13:49:21.318Z,2.00
2018-12-23T13:50:50.147Z,1.50
2018-12-23T13:52:05.319Z,2.10
2018-12-23T13:53:17.850Z,1.80
2018-12-23T13:54:36.214Z,1.87
2018-12-23T13:56:13.157Z,1.83
2018-12-23T13:57:25.566Z,1.90